»·PEaware :: SWA335 KGEG-KPDX

SWA335 :: KGEG-KPDX

FLIGHT INFORMATION

Flight Status: Arrived
Operator:
Southwest Airlines
More flights by this operator :: More flights under this callsign
Pilot: Robert A. (6703)
Aircraft: BOEING 737-300
(B733)
More flights by this aircraft type
Origin: KGEG Spokane Intl
United States
Destination: KPDX Portland Intl
United States
More flights between these airports :: More routes between these airports
Route: +ZEGRO JORAD HHOOD4
File this flight plan on PilotEdge
Remarks: / W DME MODE C RVSM
Altitude:
(Current/Filed)
28,000ft
Speed:
(Current/Filed)
430kts
Departed: 03-Apr-18 04:51 PM
Arrived: 03-Apr-18 05:45 PM
Distance/Time
Traveled:
241nm/0:54
Distance/Time
To Go:
Arrived

Flight Plot

Page will automatically refresh every two minutes.

Flight plan parsing failed; only flown route is shown


Map Options




Map Legend


Flown Route
Filed Route
Departure Airport
Arrival Airport
Navaid (VOR, NDB)
Fix

Horizontal Profiles

Position Reports

Time Latitude Longitude Heading Altitude Ground
Speed
03-Apr-18 16:20 47.623430 -117.537831 285 2363ft 0kts
03-Apr-18 16:21 47.623430 -117.537831 285 2363ft 0kts
03-Apr-18 16:22 47.623430 -117.537831 285 2363ft 0kts
03-Apr-18 16:23 47.623430 -117.537831 285 2363ft 0kts
03-Apr-18 16:24 47.623430 -117.537831 285 2363ft 0kts
03-Apr-18 16:25 47.623430 -117.537832 285 2363ft 0kts
03-Apr-18 16:26 47.623430 -117.537832 285 2363ft 0kts
03-Apr-18 16:27 47.623430 -117.537832 285 2363ft 0kts
03-Apr-18 16:28 47.623430 -117.537832 285 2363ft 0kts
03-Apr-18 16:29 47.623430 -117.537832 285 2363ft 0kts
03-Apr-18 16:30 47.623430 -117.537832 285 2363ft 0kts
03-Apr-18 16:31 47.623430 -117.537832 285 2363ft 0kts
03-Apr-18 16:32 47.623430 -117.537832 285 2363ft 0kts
03-Apr-18 16:33 47.623430 -117.537832 285 2363ft 0kts
03-Apr-18 16:34 47.623430 -117.537832 285 2363ft 0kts
03-Apr-18 16:35 47.623430 -117.537832 285 2363ft 0kts
03-Apr-18 16:36 47.623430 -117.537832 285 2363ft 0kts
03-Apr-18 16:37 47.623430 -117.537832 285 2363ft 0kts
03-Apr-18 16:38 47.623430 -117.537832 285 2363ft 0kts
03-Apr-18 16:39 47.623337 -117.537310 262 2363ft 1kts
03-Apr-18 16:40 47.623360 -117.537230 207 2363ft 0kts
03-Apr-18 16:41 47.623360 -117.537230 207 2363ft 0kts
03-Apr-18 16:42 47.623360 -117.537230 207 2363ft 0kts
03-Apr-18 16:43 47.623360 -117.537230 207 2363ft 0kts
03-Apr-18 16:44 47.623144 -117.537359 186 2363ft 3kts
03-Apr-18 16:45 47.622277 -117.535756 45 2363ft 11kts
03-Apr-18 16:46 47.625754 -117.530532 44 2354ft 22kts
03-Apr-18 16:47 47.630819 -117.522889 44 2338ft 31kts
03-Apr-18 16:48 47.631904 -117.519504 136 2327ft 0kts
03-Apr-18 16:49 47.631548 -117.518992 133 2326ft 9kts
03-Apr-18 16:50 47.622573 -117.531242 224 2361ft 147kts
03-Apr-18 16:51 47.591438 -117.577972 218 4829ft 172kts
03-Apr-18 16:52 47.547177 -117.632209 219 7117ft 222kts
03-Apr-18 16:53 47.517780 -117.714003 233 10005ft 233kts
03-Apr-18 16:54 47.477037 -117.780603 230 12927ft 226kts
03-Apr-18 16:55 47.436847 -117.846744 237 15417ft 228kts
03-Apr-18 16:56 47.391250 -117.930992 236 16786ft 282kts
03-Apr-18 16:57 47.341406 -118.022208 237 19205ft 291kts
03-Apr-18 16:58 47.287186 -118.121106 237 20804ft 322kts
03-Apr-18 16:59 47.230493 -118.224067 238 22938ft 330kts
03-Apr-18 17:00 47.172249 -118.329494 238 24885ft 338kts
03-Apr-18 17:01 47.112036 -118.438109 238 26340ft 355kts
03-Apr-18 17:02 47.045880 -118.556852 238 27351ft 382kts
03-Apr-18 17:03 46.979239 -118.676086 237 28318ft 395kts
03-Apr-18 17:04 46.912564 -118.794786 238 28010ft 376kts
03-Apr-18 17:05 46.844163 -118.915623 237 28031ft 388kts
03-Apr-18 17:06 46.774102 -119.039143 237 28029ft 388kts
03-Apr-18 17:07 46.705411 -119.159790 237 28029ft 388kts
03-Apr-18 17:08 46.636949 -119.279508 237 28029ft 388kts
03-Apr-18 17:09 46.567992 -119.399565 237 28028ft 388kts
03-Apr-18 17:10 46.500323 -119.516007 236 28029ft 389kts
03-Apr-18 17:11 46.431269 -119.635523 237 28029ft 388kts
03-Apr-18 17:12 46.365074 -119.749333 237 28032ft 389kts
03-Apr-18 17:13 46.295452 -119.868230 237 28006ft 388kts
03-Apr-18 17:14 46.225932 -119.986417 237 28002ft 388kts
03-Apr-18 17:15 46.155800 -120.105126 236 28003ft 390kts
03-Apr-18 17:16 46.085750 -120.223162 236 28002ft 390kts
03-Apr-18 17:17 46.015687 -120.340731 236 27344ft 390kts
03-Apr-18 17:18 45.947959 -120.453858 236 25552ft 372kts
03-Apr-18 17:19 45.880937 -120.565199 235 24081ft 364kts
03-Apr-18 17:20 45.818500 -120.673058 249 23994ft 344kts
03-Apr-18 17:21 45.783713 -120.801258 252 22922ft 342kts
03-Apr-18 17:22 45.750168 -120.924103 252 20860ft 329kts
03-Apr-18 17:23 45.717069 -121.044503 251 18868ft 322kts
03-Apr-18 17:24 45.684463 -121.161670 251 16880ft 315kts
03-Apr-18 17:25 45.652411 -121.276788 251 14844ft 299kts
03-Apr-18 17:26 45.621505 -121.387540 250 12875ft 291kts
03-Apr-18 17:27 45.592024 -121.492521 250 11004ft 287kts
03-Apr-18 17:28 45.566074 -121.585189 250 9601ft 266kts
03-Apr-18 17:29 45.543137 -121.666754 249 8895ft 275kts
03-Apr-18 17:30 45.530893 -121.756114 273 8626ft 270kts
03-Apr-18 17:31 45.534150 -121.843106 273 8072ft 234kts
03-Apr-18 17:32 45.537056 -121.923351 273 7286ft 230kts
03-Apr-18 17:33 45.540902 -122.005574 274 6642ft 225kts
03-Apr-18 17:34 45.527287 -122.071273 235 6589ft 233kts
03-Apr-18 17:35 45.500241 -122.125714 235 5999ft 227kts
03-Apr-18 17:36 45.474983 -122.180100 257 5407ft 224kts
03-Apr-18 17:37 45.478606 -122.250902 277 4719ft 202kts
03-Apr-18 17:38 45.485581 -122.316763 290 3977ft 197kts
03-Apr-18 17:39 45.507339 -122.373900 302 3162ft 183kts
03-Apr-18 17:40 45.529080 -122.427314 299 2272ft 153kts
03-Apr-18 17:41 45.548751 -122.477719 299 1510ft 147kts
03-Apr-18 17:42 45.567407 -122.526010 298 690ft 137kts
03-Apr-18 17:43 45.586532 -122.574507 299 29ft 126kts
03-Apr-18 17:44 45.592111 -122.591775 270 24ft 6kts

Navigation Log

Ident Type
Flight plan parsing failed, navigation log unavailable